createdAt,value
2018-12-29T00:00:56.698Z,18.67
2018-12-29T00:03:24.571Z,17.62
2018-12-29T00:05:54.901Z,18.23
2018-12-29T00:08:26.907Z,17.40
2018-12-29T00:10:58.558Z,18.27
2018-12-29T00:13:26.409Z,19.27
2018-12-29T00:15:56.535Z,17.98
2018-12-29T00:18:24.342Z,17.90
2018-12-29T00:20:52.059Z,18.25
2018-12-29T00:23:19.639Z,19.00
2018-12-29T00:25:47.878Z,19.37
2018-12-29T00:28:15.474Z,18.02
2018-12-29T00:30:43.265Z,19.20
2018-12-29T00:33:10.932Z,20.00
2018-12-29T00:35:38.729Z,18.45
2018-12-29T00:38:09.261Z,18.23
2018-12-29T00:40:37.177Z,19.67
2018-12-29T00:43:04.810Z,19.15
2018-12-29T00:45:32.398Z,18.40
2018-12-29T00:48:02.099Z,19.05
2018-12-29T00:50:31.900Z,19.45
2018-12-29T00:52:59.480Z,20.08
2018-12-29T00:55:28.845Z,18.07
2018-12-29T00:57:56.640Z,19.42
2018-12-29T01:00:24.235Z,21.05
2018-12-29T01:02:52.241Z,19.70
2018-12-29T01:05:20.160Z,22.10
2018-12-29T01:07:49.258Z,19.30
2018-12-29T01:10:17.103Z,21.62
2018-12-29T01:12:44.769Z,22.82
2018-12-29T01:15:12.361Z,23.22
2018-12-29T01:17:40.408Z,22.50
2018-12-29T01:20:10.821Z,20.10
2018-12-29T01:22:38.402Z,22.15
2018-12-29T01:25:07.184Z,21.07
2018-12-29T01:27:34.778Z,20.37
2018-12-29T01:30:04.419Z,20.17
2018-12-29T01:32:32.013Z,20.43
2018-12-29T01:34:59.621Z,19.62
2018-12-29T01:37:29.105Z,19.48
2018-12-29T01:39:56.905Z,20.02
2018-12-29T01:42:24.604Z,17.20
2018-12-29T01:44:52.173Z,17.45
2018-12-29T01:47:21.244Z,18.07
2018-12-29T01:49:49.092Z,18.90
2018-12-29T01:52:16.710Z,15.13
2018-12-29T01:54:44.370Z,14.25
2018-12-29T01:57:11.995Z,16.35
2018-12-29T01:59:39.600Z,18.77
2018-12-29T02:02:07.299Z,18.82
2018-12-29T02:04:34.906Z,18.65
2018-12-29T02:07:02.500Z,17.40
2018-12-29T02:09:30.150Z,18.87
2018-12-29T02:11:57.726Z,18.52
2018-12-29T02:14:25.610Z,18.85
2018-12-29T02:16:54.749Z,18.60
2018-12-29T02:19:22.380Z,18.12
2018-12-29T02:21:49.931Z,19.35
2018-12-29T02:24:18.698Z,19.05
2018-12-29T02:26:47.557Z,17.80
2018-12-29T02:29:15.166Z,17.92
2018-12-29T02:31:43.053Z,19.95
2018-12-29T02:34:12.410Z,19.48
2018-12-29T02:36:40.020Z,18.48
2018-12-29T02:39:07.787Z,18.82
2018-12-29T02:41:35.387Z,19.32
2018-12-29T02:44:03.973Z,17.95
2018-12-29T02:46:31.640Z,19.27
2018-12-29T02:48:59.354Z,19.55
2018-12-29T02:51:28.390Z,19.65
2018-12-29T02:53:57.234Z,19.35
2018-12-29T02:56:24.872Z,19.48
2018-12-29T02:58:54.696Z,19.32
2018-12-29T03:01:22.323Z,18.52
2018-12-29T03:03:49.927Z,20.17
2018-12-29T03:06:17.603Z,18.23
2018-12-29T03:08:47.117Z,20.20
2018-12-29T03:11:15.144Z,19.67
2018-12-29T03:13:42.932Z,19.05
2018-12-29T03:16:10.788Z,19.73
2018-12-29T03:18:38.580Z,20.32
2018-12-29T03:21:06.250Z,19.90
2018-12-29T03:23:33.955Z,20.12
2018-12-29T03:26:01.675Z,16.02
2018-12-29T03:28:30.314Z,19.55
2018-12-29T03:30:58.073Z,19.50
2018-12-29T03:33:25.638Z,19.00
2018-12-29T03:35:53.319Z,17.32
2018-12-29T03:38:21.210Z,19.87
2018-12-29T03:40:48.798Z,19.60
2018-12-29T03:43:16.415Z,20.30
2018-12-29T03:45:49.125Z,18.40
2018-12-29T03:48:13.872Z,20.27
2018-12-29T03:50:41.768Z,19.02
2018-12-29T03:53:10.029Z,19.85
2018-12-29T03:55:37.644Z,17.98
2018-12-29T03:58:05.254Z,19.40
2018-12-29T04:00:34.190Z,19.45
2018-12-29T04:03:01.794Z,20.45
2018-12-29T04:05:29.431Z,18.80
2018-12-29T04:07:57.075Z,18.32
2018-12-29T04:10:24.727Z,19.45
2018-12-29T04:12:55.496Z,18.85
2018-12-29T04:15:24.716Z,19.35
2018-12-29T04:17:55.010Z,19.05
2018-12-29T04:20:22.612Z,18.98
2018-12-29T04:22:51.288Z,19.32
2018-12-29T04:25:24.128Z,19.55
2018-12-29T04:27:51.717Z,20.23
2018-12-29T04:30:20.738Z,19.07
2018-12-29T04:32:48.478Z,19.80
2018-12-29T04:35:16.321Z,18.57
2018-12-29T04:37:43.929Z,19.42
2018-12-29T04:40:11.583Z,19.42
2018-12-29T04:42:39.165Z,18.40
2018-12-29T04:45:07.014Z,18.60
2018-12-29T04:47:34.679Z,20.05
2018-12-29T04:50:02.293Z,20.55
2018-12-29T04:52:30.012Z,19.87
2018-12-29T04:54:57.719Z,19.92
2018-12-29T04:57:25.315Z,18.62
2018-12-29T04:59:53.125Z,19.42
2018-12-29T05:02:20.692Z,17.90
2018-12-29T05:04:48.280Z,19.75
2018-12-29T05:07:16.106Z,18.20
2018-12-29T05:09:45.166Z,18.40
2018-12-29T05:12:12.803Z,18.52
2018-12-29T05:14:40.694Z,18.67
2018-12-29T05:17:08.350Z,16.80
2018-12-29T05:19:36.051Z,17.95
2018-12-29T05:22:03.946Z,19.35
2018-12-29T05:24:32.801Z,16.67
2018-12-29T05:27:02.421Z,17.87
2018-12-29T05:29:30.323Z,18.62
2018-12-29T05:31:57.960Z,18.15
2018-12-29T05:34:26.030Z,16.48
2018-12-29T05:36:54.216Z,18.23
2018-12-29T05:39:21.785Z,17.12
2018-12-29T05:41:49.405Z,18.82
2018-12-29T05:44:17.297Z,16.37
2018-12-29T05:46:44.941Z,17.15
2018-12-29T05:49:13.860Z,16.05
2018-12-29T05:51:41.606Z,17.32
2018-12-29T05:54:09.201Z,16.67
2018-12-29T05:56:37.602Z,16.82
2018-12-29T05:59:05.234Z,15.95
2018-12-29T06:01:32.842Z,16.42
2018-12-29T06:04:00.486Z,17.00
2018-12-29T06:06:28.382Z,16.70
2018-12-29T06:08:56.060Z,15.50
2018-12-29T06:11:23.698Z,16.27
2018-12-29T06:13:52.469Z,13.55
2018-12-29T06:16:20.082Z,15.35
2018-12-29T06:18:47.687Z,15.98
2018-12-29T06:21:15.437Z,15.40
2018-12-29T06:23:43.043Z,13.83
2018-12-29T06:26:10.645Z,15.65
2018-12-29T06:28:38.492Z,15.35
2018-12-29T06:31:06.107Z,15.00
2018-12-29T06:33:33.711Z,14.38
2018-12-29T06:36:04.400Z,14.33
2018-12-29T06:38:33.759Z,15.45
2018-12-29T06:41:01.348Z,17.10
2018-12-29T06:43:29.039Z,15.70
2018-12-29T06:45:56.674Z,15.43
2018-12-29T06:48:24.288Z,15.90
2018-12-29T06:50:52.143Z,15.70
2018-12-29T06:53:19.734Z,15.25
2018-12-29T06:55:47.354Z,15.35
2018-12-29T06:58:15.151Z,15.10
2018-12-29T07:00:42.814Z,15.08
2018-12-29T07:03:11.516Z,15.23
2018-12-29T07:05:39.238Z,14.35
2018-12-29T07:08:06.847Z,16.00
2018-12-29T07:10:34.450Z,15.30
2018-12-29T07:13:02.195Z,15.75
2018-12-29T07:15:29.810Z,16.15
2018-12-29T07:17:57.614Z,13.98
2018-12-29T07:20:29.425Z,15.00
2018-12-29T07:22:57.040Z,15.85
2018-12-29T07:25:24.861Z,15.60
2018-12-29T07:27:52.844Z,15.20
2018-12-29T07:30:22.193Z,14.38
2018-12-29T07:32:49.810Z,14.35
2018-12-29T07:35:17.534Z,15.37
2018-12-29T07:37:45.178Z,14.83
2018-12-29T07:40:13.916Z,15.28
2018-12-29T07:42:41.624Z,14.70
2018-12-29T07:45:09.378Z,16.23
2018-12-29T07:47:40.577Z,15.70
2018-12-29T07:50:08.613Z,16.80
2018-12-29T07:52:36.313Z,16.00
2018-12-29T07:55:04.627Z,14.58
2018-12-29T07:57:32.306Z,15.98
2018-12-29T08:00:00.019Z,16.52
2018-12-29T08:02:27.597Z,15.32
2018-12-29T08:04:55.551Z,14.93
2018-12-29T08:07:23.115Z,14.98
2018-12-29T08:09:50.907Z,15.15
2018-12-29T08:12:18.706Z,15.43
2018-12-29T08:14:46.294Z,15.43
2018-12-29T08:17:15.117Z,15.35
2018-12-29T08:19:45.217Z,14.53
2018-12-29T08:22:12.846Z,15.90
2018-12-29T08:24:41.024Z,14.57
2018-12-29T08:27:08.848Z,15.98
2018-12-29T08:29:36.459Z,15.63
2018-12-29T08:32:04.607Z,15.70
2018-12-29T08:34:32.510Z,17.02
2018-12-29T08:37:00.305Z,17.30
2018-12-29T08:39:27.953Z,17.43
2018-12-29T08:41:55.833Z,17.00
2018-12-29T08:44:23.659Z,16.20
2018-12-29T08:46:54.100Z,15.85
2018-12-29T08:49:21.958Z,15.65
2018-12-29T08:51:49.641Z,17.27
2018-12-29T08:54:17.425Z,17.37
2018-12-29T08:56:45.158Z,17.13
2018-12-29T08:59:12.778Z,16.25
2018-12-29T09:01:40.669Z,16.42
2018-12-29T09:04:08.438Z,16.17
2018-12-29T09:06:36.235Z,14.93
2018-12-29T09:09:05.816Z,16.37
2018-12-29T09:11:36.458Z,14.40
2018-12-29T09:14:04.294Z,14.78
2018-12-29T09:16:31.898Z,15.68
2018-12-29T09:18:59.616Z,16.20
2018-12-29T09:21:27.182Z,17.55
2018-12-29T09:23:54.816Z,15.93
2018-12-29T09:26:22.611Z,16.05
2018-12-29T09:28:50.463Z,16.52
2018-12-29T09:31:18.237Z,15.72
2018-12-29T09:33:47.055Z,16.90
2018-12-29T09:36:14.685Z,15.65
2018-12-29T09:38:42.336Z,17.02
2018-12-29T09:41:09.979Z,17.87
2018-12-29T09:43:38.123Z,16.57
2018-12-29T09:46:05.759Z,17.98
2018-12-29T09:48:33.657Z,17.97
2018-12-29T09:51:01.254Z,16.25
2018-12-29T09:53:28.854Z,18.25
2018-12-29T09:55:56.797Z,16.70
2018-12-29T09:58:24.902Z,16.50
2018-12-29T10:00:53.908Z,16.97
2018-12-29T10:03:23.608Z,16.93
2018-12-29T10:05:51.176Z,17.03
2018-12-29T10:08:18.788Z,17.55
2018-12-29T10:10:46.867Z,17.73
2018-12-29T10:13:14.587Z,17.50
2018-12-29T10:15:42.221Z,17.80
2018-12-29T10:18:09.866Z,17.20
2018-12-29T10:20:39.665Z,18.40
2018-12-29T10:23:09.207Z,17.77
2018-12-29T10:25:37.187Z,17.10
2018-12-29T10:28:04.938Z,16.20
2018-12-29T10:30:35.450Z,18.25
2018-12-29T10:33:03.155Z,16.80
2018-12-29T10:35:30.768Z,18.50
2018-12-29T10:37:58.396Z,16.53
2018-12-29T10:40:26.277Z,17.40
2018-12-29T10:42:53.906Z,18.03
2018-12-29T10:45:21.549Z,19.03
2018-12-29T10:47:49.535Z,15.00
2018-12-29T10:50:17.134Z,16.53
2018-12-29T10:52:44.812Z,18.57
2018-12-29T10:55:12.661Z,19.00
2018-12-29T10:57:42.527Z,17.50
2018-12-29T11:00:10.119Z,19.07
2018-12-29T11:02:40.188Z,19.30
2018-12-29T11:05:09.388Z,18.57
2018-12-29T11:07:37.211Z,17.87
2018-12-29T11:10:05.023Z,18.27
2018-12-29T11:12:32.640Z,18.03
2018-12-29T11:15:00.299Z,19.17
2018-12-29T11:17:28.309Z,19.17
2018-12-29T11:19:55.958Z,18.63
2018-12-29T11:22:23.629Z,20.67
2018-12-29T11:24:51.293Z,19.67
2018-12-29T11:27:18.972Z,18.03
2018-12-29T11:29:46.762Z,18.63
2018-12-29T11:32:25.246Z,19.60
2018-12-29T11:34:52.909Z,20.50
2018-12-29T11:37:20.780Z,20.40
2018-12-29T11:39:48.558Z,20.75
2018-12-29T11:42:16.162Z,19.43
2018-12-29T11:44:43.817Z,19.73
2018-12-29T11:47:14.242Z,20.60
2018-12-29T11:49:41.846Z,20.80
2018-12-29T11:52:09.446Z,20.27
2018-12-29T11:54:37.768Z,20.37
2018-12-29T11:57:10.609Z,20.07
2018-12-29T11:59:38.747Z,33.15
2018-12-29T12:02:08.707Z,20.55
2018-12-29T12:04:38.561Z,21.13
2018-12-29T12:07:06.723Z,19.77
2018-12-29T12:09:39.736Z,21.13
2018-12-29T12:12:08.775Z,19.57
2018-12-29T12:14:38.775Z,21.13
2018-12-29T12:17:06.929Z,22.13
2018-12-29T12:19:34.844Z,21.30
2018-12-29T12:22:02.713Z,21.50
2018-12-29T12:24:30.488Z,21.97
2018-12-29T12:26:59.793Z,27.00
2018-12-29T12:29:32.369Z,22.20
2018-12-29T12:32:02.244Z,17.47
2018-12-29T12:34:29.982Z,23.07
2018-12-29T12:37:00.728Z,21.77
2018-12-29T12:39:29.684Z,23.93
2018-12-29T12:41:57.308Z,23.23
2018-12-29T12:44:24.947Z,23.27
2018-12-29T12:46:55.371Z,24.47
2018-12-29T12:49:23.342Z,21.63
2018-12-29T12:51:50.987Z,24.37
2018-12-29T12:54:18.838Z,22.93
2018-12-29T12:56:46.491Z,22.63
2018-12-29T12:59:14.389Z,23.07
2018-12-29T13:01:45.322Z,18.03
2018-12-29T13:04:13.121Z,24.90
2018-12-29T13:06:42.688Z,24.03
2018-12-29T13:09:10.855Z,23.85
2018-12-29T13:11:38.608Z,25.57
2018-12-29T13:14:06.668Z,24.17
2018-12-29T13:16:36.745Z,23.73
2018-12-29T13:19:04.345Z,25.10
2018-12-29T13:21:35.782Z,23.47
2018-12-29T13:24:03.740Z,23.60
2018-12-29T13:26:34.390Z,23.87
2018-12-29T13:29:02.054Z,22.05
2018-12-29T13:31:29.828Z,21.10
2018-12-29T13:33:57.727Z,21.63
2018-12-29T13:36:25.377Z,22.27
2018-12-29T13:38:56.356Z,21.83
2018-12-29T13:41:26.569Z,21.67
2018-12-29T13:43:54.237Z,22.33
2018-12-29T13:46:25.713Z,23.20
2018-12-29T13:48:53.309Z,22.43
2018-12-29T13:51:21.324Z,19.63
2018-12-29T13:53:49.343Z,18.93
2018-12-29T13:56:17.233Z,17.50
2018-12-29T13:58:44.770Z,16.80
2018-12-29T14:01:17.474Z,17.77
2018-12-29T14:03:45.111Z,17.13
2018-12-29T14:06:12.708Z,16.20
2018-12-29T14:08:40.939Z,14.53
2018-12-29T14:11:08.793Z,15.13
2018-12-29T14:13:36.443Z,15.73
2018-12-29T14:16:14.351Z,14.87
2018-12-29T14:18:42.175Z,13.03
2018-12-29T14:21:10.374Z,16.90
2018-12-29T14:23:38.979Z,15.37
2018-12-29T14:26:06.749Z,14.03
2018-12-29T14:28:34.670Z,13.70
2018-12-29T14:31:03.712Z,12.37
2018-12-29T14:33:32.549Z,14.23
2018-12-29T14:36:07.911Z,13.37
2018-12-29T14:38:39.165Z,11.53
2018-12-29T14:41:11.420Z,13.27
2018-12-29T14:43:46.157Z,13.57
2018-12-29T14:46:14.810Z,14.37
2018-12-29T14:48:50.342Z,13.70
2018-12-29T14:51:19.592Z,15.03
2018-12-29T14:53:50.010Z,14.90
2018-12-29T14:56:24.496Z,14.63
2018-12-29T14:59:00.559Z,15.53
2018-12-29T15:01:36.753Z,15.90
2018-12-29T15:04:05.675Z,17.50
2018-12-29T15:06:35.661Z,15.77
2018-12-29T15:09:07.710Z,15.33
2018-12-29T15:11:35.370Z,19.20
2018-12-29T15:14:03.076Z,19.33
2018-12-29T15:16:31.224Z,20.47
2018-12-29T15:18:59.934Z,22.23
2018-12-29T15:21:27.955Z,22.67
2018-12-29T15:23:56.043Z,21.13
2018-12-29T15:26:29.420Z,21.27
2018-12-29T15:28:57.350Z,22.50
2018-12-29T15:31:24.994Z,21.60
2018-12-29T15:33:54.763Z,22.77
2018-12-29T15:36:30.991Z,24.90
2018-12-29T15:38:58.643Z,20.87
2018-12-29T15:41:26.278Z,24.87
2018-12-29T15:43:56.659Z,26.80
2018-12-29T15:46:24.262Z,26.07
2018-12-29T15:48:51.904Z,25.07
2018-12-29T15:56:48.956Z,24.70
2018-12-29T16:06:13.158Z,25.97
2018-12-29T16:09:55.780Z,25.03
2018-12-29T16:16:35.474Z,22.10
2018-12-29T16:19:20.227Z,20.67
2018-12-29T16:22:01.701Z,23.23
2018-12-29T16:24:29.981Z,22.40
2018-12-29T16:27:14.656Z,24.63
2018-12-29T16:30:21.871Z,25.33
2018-12-29T16:33:19.368Z,25.20
2018-12-29T16:35:57.214Z,21.40
2018-12-29T16:42:29.368Z,25.57
2018-12-29T16:55:39.808Z,24.13
2018-12-29T17:04:24.772Z,23.07
2018-12-29T17:06:52.756Z,20.97
2018-12-29T17:09:20.707Z,22.37
2018-12-29T17:11:52.372Z,22.70
2018-12-29T17:14:18.384Z,21.07
2018-12-29T17:16:46.100Z,17.10
2018-12-29T17:19:14.824Z,20.60
2018-12-29T17:21:42.968Z,20.67
2018-12-29T17:24:11.105Z,20.60
2018-12-29T17:26:38.894Z,18.87
2018-12-29T17:29:06.957Z,19.80
2018-12-29T17:31:34.553Z,22.30
2018-12-29T17:34:02.491Z,20.03
2018-12-29T17:36:33.429Z,18.83
2018-12-29T17:39:01.246Z,19.67
2018-12-29T17:41:31.110Z,18.37
2018-12-29T17:44:03.771Z,19.67
2018-12-29T17:46:34.667Z,18.87
2018-12-29T17:49:02.588Z,17.87
2018-12-29T17:51:30.445Z,17.63
2018-12-29T17:53:58.098Z,16.50
2018-12-29T17:56:26.285Z,18.10
2018-12-29T17:58:54.222Z,16.47
2018-12-29T18:01:24.917Z,18.13
2018-12-29T18:03:52.543Z,16.93
2018-12-29T18:06:26.235Z,17.53
2018-12-29T18:08:54.393Z,16.43
2018-12-29T18:11:44.994Z,15.73
2018-12-29T18:14:13.267Z,17.77
2018-12-29T18:16:41.066Z,16.40
2018-12-29T18:19:09.773Z,16.63
2018-12-29T18:21:40.801Z,14.00
2018-12-29T18:24:08.380Z,14.50
2018-12-29T18:26:37.075Z,14.90
2018-12-29T18:29:05.075Z,13.60
2018-12-29T18:31:32.745Z,14.20
2018-12-29T18:34:00.440Z,13.00
2018-12-29T18:36:31.106Z,12.17
2018-12-29T18:38:58.485Z,16.10
2018-12-29T18:41:29.031Z,15.80
2018-12-29T18:43:58.288Z,13.77
2018-12-29T18:46:25.912Z,12.30
2018-12-29T18:48:53.708Z,13.30
2018-12-29T18:51:24.637Z,10.97
2018-12-29T18:53:52.274Z,11.70
2018-12-29T18:56:22.641Z,17.63
2018-12-29T18:58:52.895Z,11.03
2018-12-29T19:01:20.526Z,11.97
2018-12-29T19:03:48.536Z,10.63
2018-12-29T19:06:16.217Z,10.87
2018-12-29T19:08:44.842Z,10.47
2018-12-29T19:11:12.714Z,11.83
2018-12-29T19:13:45.291Z,11.43
2018-12-29T19:16:22.533Z,14.07
2018-12-29T19:18:52.822Z,13.40
2018-12-29T19:21:21.225Z,14.13
2018-12-29T19:23:51.952Z,14.17
2018-12-29T19:26:19.750Z,12.70
2018-12-29T19:28:48.071Z,15.30
2018-12-29T19:31:16.307Z,16.10
2018-12-29T19:33:44.211Z,15.67
2018-12-29T19:36:11.993Z,15.63
2018-12-29T19:38:41.069Z,16.33
2018-12-29T19:41:10.876Z,16.27
2018-12-29T19:43:43.943Z,16.07
2018-12-29T19:46:13.931Z,14.20
2018-12-29T19:48:41.637Z,12.73
2018-12-29T19:51:09.564Z,13.10
2018-12-29T19:53:37.922Z,12.93
2018-12-29T19:56:11.917Z,12.43
2018-12-29T19:58:40.899Z,11.63
2018-12-29T20:01:09.924Z,10.87
2018-12-29T20:03:37.797Z,9.90
2018-12-29T20:06:11.153Z,7.67
2018-12-29T20:08:39.324Z,8.53
2018-12-29T20:11:11.022Z,9.13
2018-12-29T20:13:41.990Z,9.43
2018-12-29T20:16:10.647Z,9.90
2018-12-29T20:18:40.314Z,9.53
2018-12-29T20:21:09.485Z,26.63
2018-12-29T20:23:37.223Z,11.17
2018-12-29T20:26:05.236Z,10.50
2018-12-29T20:28:33.953Z,11.80
2018-12-29T20:31:01.514Z,10.60
2018-12-29T20:33:29.391Z,39.00
2018-12-29T20:35:59.758Z,10.70
2018-12-29T20:38:31.963Z,11.73
2018-12-29T20:41:00.003Z,12.40
2018-12-29T20:43:36.407Z,12.90
2018-12-29T20:46:04.307Z,13.40
2018-12-29T20:48:43.283Z,12.73
2018-12-29T20:51:11.666Z,13.27
2018-12-29T20:53:41.563Z,13.70
2018-12-29T20:56:09.337Z,17.30
2018-12-29T20:58:39.128Z,14.97
2018-12-29T21:01:06.738Z,15.17
2018-12-29T21:03:34.400Z,14.83
2018-12-29T21:06:05.044Z,14.07
2018-12-29T21:08:33.057Z,13.90
2018-12-29T21:11:00.861Z,12.47
2018-12-29T21:13:28.784Z,10.37
2018-12-29T21:15:59.054Z,12.70
2018-12-29T21:18:29.055Z,12.77
2018-12-29T21:20:56.818Z,12.00
2018-12-29T21:23:24.440Z,12.00
2018-12-29T21:25:52.057Z,12.37
2018-12-29T21:28:22.205Z,11.97
2018-12-29T21:30:49.842Z,11.77
2018-12-29T21:33:19.269Z,11.40
2018-12-29T21:35:47.542Z,11.03
2018-12-29T21:38:15.150Z,10.93
2018-12-29T21:40:42.809Z,11.07
2018-12-29T21:43:10.688Z,10.37
2018-12-29T21:45:45.224Z,9.37
2018-12-29T21:48:13.082Z,9.07
2018-12-29T21:50:43.811Z,9.37
2018-12-29T21:53:13.107Z,9.53
2018-12-29T21:55:43.945Z,9.87
2018-12-29T21:58:11.725Z,9.03
2018-12-29T22:00:39.381Z,8.17
2018-12-29T22:03:07.644Z,9.27
2018-12-29T22:05:37.517Z,9.47
2018-12-29T22:08:05.169Z,10.30
2018-12-29T22:10:33.093Z,10.07
2018-12-29T22:13:03.611Z,9.10
2018-12-29T22:15:34.260Z,11.47
2018-12-29T22:18:01.925Z,9.77
2018-12-29T22:20:33.345Z,9.10
2018-12-29T22:23:05.181Z,10.03
2018-12-29T22:25:35.818Z,11.00
2018-12-29T22:28:03.646Z,10.67
2018-12-29T22:30:38.417Z,12.37
2018-12-29T22:33:07.002Z,11.10
2018-12-29T22:35:34.867Z,11.70
2018-12-29T22:38:02.883Z,12.47
2018-12-29T22:40:33.572Z,12.90
2018-12-29T22:43:01.231Z,12.37
2018-12-29T22:45:28.930Z,13.63
2018-12-29T22:47:56.794Z,13.60
2018-12-29T22:50:24.430Z,13.37
2018-12-29T22:52:55.444Z,12.63
2018-12-29T22:55:23.383Z,13.47
2018-12-29T22:57:51.290Z,14.30
2018-12-29T23:00:26.127Z,15.53
2018-12-29T23:02:53.711Z,16.60
2018-12-29T23:05:24.048Z,14.57
2018-12-29T23:07:51.694Z,15.47
2018-12-29T23:10:24.727Z,14.90
2018-12-29T23:12:52.863Z,16.10
2018-12-29T23:15:26.443Z,14.43
2018-12-29T23:17:57.576Z,13.63
2018-12-29T23:20:27.996Z,14.70
2018-12-29T23:22:55.669Z,15.20
2018-12-29T23:25:23.334Z,14.53
2018-12-29T23:27:50.987Z,14.13
2018-12-29T23:30:20.242Z,15.40
2018-12-29T23:32:51.877Z,14.47
2018-12-29T23:35:19.651Z,14.77
2018-12-29T23:37:50.566Z,14.43
2018-12-29T23:40:18.162Z,14.80
2018-12-29T23:43:00.528Z,15.00
2018-12-29T23:45:29.796Z,13.97
2018-12-29T23:47:58.101Z,13.73
2018-12-29T23:50:25.954Z,13.20
2018-12-29T23:53:01.198Z,13.20
2018-12-29T23:55:29.118Z,12.83
2018-12-29T23:57:56.802Z,11.67
